sensor_id;sensor_type;location;lat;lon;timestamp;pressure;altitude;pressure_sealevel;temperature;humidity
12969;BME280;6549;53.128;8.182;2023-02-21T00:00:04;101310.72;;;8.82;100.00
12969;BME280;6549;53.128;8.182;2023-02-21T00:03:22;101299.69;;;8.78;100.00
12969;BME280;6549;53.128;8.182;2023-02-21T00:06:43;101312.31;;;8.83;100.00
12969;BME280;6549;53.128;8.182;2023-02-21T00:10:03;101315.59;;;8.88;100.00
12969;BME280;6549;53.128;8.182;2023-02-21T00:13:21;101307.06;;;8.93;100.00
12969;BME280;6549;53.128;8.182;2023-02-21T00:16:40;101316.50;;;8.96;100.00
12969;BME280;6549;53.128;8.182;2023-02-21T00:19:59;101305.56;;;8.96;100.00
12969;BME280;6549;53.128;8.182;2023-02-21T00:23:18;101315.88;;;9.02;100.00
12969;BME280;6549;53.128;8.182;2023-02-21T00:26:36;101306.47;;;9.03;100.00
12969;BME280;6549;53.128;8.182;2023-02-21T00:29:55;101317.59;;;9.11;100.00
12969;BME280;6549;53.128;8.182;2023-02-21T00:33:14;101315.34;;;9.16;100.00
12969;BME280;6549;53.128;8.182;2023-02-21T00:36:33;101319.63;;;9.14;100.00
12969;BME280;6549;53.128;8.182;2023-02-21T00:39:51;101318.53;;;9.18;100.00
12969;BME280;6549;53.128;8.182;2023-02-21T00:43:10;101322.88;;;9.19;100.00
12969;BME280;6549;53.128;8.182;2023-02-21T00:46:29;101320.19;;;9.23;100.00
12969;BME280;6549;53.128;8.182;2023-02-21T00:49:48;101306.53;;;9.26;100.00
12969;BME280;6549;53.128;8.182;2023-02-21T00:53:06;101321.56;;;9.32;100.00
12969;BME280;6549;53.128;8.182;2023-02-21T00:56:25;101320.75;;;9.32;100.00
12969;BME280;6549;53.128;8.182;2023-02-21T00:59:44;101309.28;;;9.26;100.00
12969;BME280;6549;53.128;8.182;2023-02-21T01:03:03;101311.44;;;9.17;100.00
12969;BME280;6549;53.128;8.182;2023-02-21T01:06:22;101316.53;;;9.15;100.00
12969;BME280;6549;53.128;8.182;2023-02-21T01:09:41;101313.25;;;9.10;100.00
12969;BME280;6549;53.128;8.182;2023-02-21T01:13:00;101331.31;;;9.11;100.00
12969;BME280;6549;53.128;8.182;2023-02-21T01:16:18;101323.88;;;9.11;100.00
12969;BME280;6549;53.128;8.182;2023-02-21T01:19:37;101329.66;;;9.06;100.00
12969;BME280;6549;53.128;8.182;2023-02-21T01:22:56;101340.16;;;9.04;100.00
12969;BME280;6549;53.128;8.182;2023-02-21T01:26:15;101337.00;;;9.02;100.00
12969;BME280;6549;53.128;8.182;2023-02-21T01:29:35;101335.34;;;8.97;100.00
12969;BME280;6549;53.128;8.182;2023-02-21T01:32:54;101338.38;;;8.92;100.00
12969;BME280;6549;53.128;8.182;2023-02-21T01:36:13;101346.94;;;8.91;100.00
12969;BME280;6549;53.128;8.182;2023-02-21T01:39:32;101341.47;;;8.91;100.00
12969;BME280;6549;53.128;8.182;2023-02-21T01:42:51;101340.59;;;8.87;100.00
12969;BME280;6549;53.128;8.182;2023-02-21T01:46:12;101346.81;;;8.84;100.00
12969;BME280;6549;53.128;8.182;2023-02-21T01:49:32;101344.50;;;8.86;100.00
12969;BME280;6549;53.128;8.182;2023-02-21T01:52:52;101357.91;;;8.91;100.00
12969;BME280;6549;53.128;8.182;2023-02-21T01:56:12;101344.59;;;8.89;100.00
12969;BME280;6549;53.128;8.182;2023-02-21T01:59:31;101350.06;;;8.89;100.00
12969;BME280;6549;53.128;8.182;2023-02-21T02:02:59;101335.06;;;8.83;100.00
12969;BME280;6549;53.128;8.182;2023-02-21T02:06:18;101331.06;;;8.81;100.00
12969;BME280;6549;53.128;8.182;2023-02-21T02:09:37;101330.19;;;8.77;100.00
12969;BME280;6549;53.128;8.182;2023-02-21T02:19:36;101326.03;;;8.83;100.00
12969;BME280;6549;53.128;8.182;2023-02-21T02:35:49;101341.88;;;8.74;100.00
12969;BME280;6549;53.128;8.182;2023-02-21T02:39:19;101343.09;;;8.76;100.00
12969;BME280;6549;53.128;8.182;2023-02-21T02:42:39;101347.38;;;8.74;100.00
12969;BME280;6549;53.128;8.182;2023-02-21T02:45:47;101356.72;;;8.73;100.00
12969;BME280;6549;53.128;8.182;2023-02-21T02:48:56;101361.06;;;8.74;100.00
12969;BME280;6549;53.128;8.182;2023-02-21T02:52:04;101366.81;;;8.69;100.00
12969;BME280;6549;53.128;8.182;2023-02-21T02:58:42;101364.00;;;8.65;100.00
12969;BME280;6549;53.128;8.182;2023-02-21T03:11:14;101374.44;;;8.60;100.00
12969;BME280;6549;53.128;8.182;2023-02-21T03:14:18;101371.28;;;8.57;100.00
12969;BME280;6549;53.128;8.182;2023-02-21T03:17:22;101370.09;;;8.58;100.00
12969;BME280;6549;53.128;8.182;2023-02-21T03:20:26;101380.38;;;8.62;100.00
12969;BME280;6549;53.128;8.182;2023-02-21T03:23:29;101381.06;;;8.58;100.00
12969;BME280;6549;53.128;8.182;2023-02-21T03:26:33;101376.75;;;8.57;100.00
12969;BME280;6549;53.128;8.182;2023-02-21T03:29:36;101381.50;;;8.61;100.00
12969;BME280;6549;53.128;8.182;2023-02-21T03:32:40;101387.72;;;8.57;100.00
12969;BME280;6549;53.128;8.182;2023-02-21T03:35:42;101385.31;;;8.56;100.00
12969;BME280;6549;53.128;8.182;2023-02-21T03:38:42;101383.38;;;8.56;100.00
12969;BME280;6549;53.128;8.182;2023-02-21T03:41:43;101380.63;;;8.56;100.00
12969;BME280;6549;53.128;8.182;2023-02-21T03:44:43;101379.50;;;8.57;100.00
12969;BME280;6549;53.128;8.182;2023-02-21T03:47:44;101383.72;;;8.55;100.00
12969;BME280;6549;53.128;8.182;2023-02-21T03:50:44;101390.81;;;8.56;100.00
12969;BME280;6549;53.128;8.182;2023-02-21T03:53:44;101382.94;;;8.54;100.00
12969;BME280;6549;53.128;8.182;2023-02-21T03:56:45;101390.44;;;8.57;100.00
12969;BME280;6549;53.128;8.182;2023-02-21T03:59:45;101385.66;;;8.54;100.00
12969;BME280;6549;53.128;8.182;2023-02-21T04:02:45;101391.59;;;8.56;100.00
12969;BME280;6549;53.128;8.182;2023-02-21T04:05:46;101388.06;;;8.56;100.00
12969;BME280;6549;53.128;8.182;2023-02-21T04:08:46;101387.78;;;8.61;100.00
12969;BME280;6549;53.128;8.182;2023-02-21T04:11:46;101390.06;;;8.59;100.00
12969;BME280;6549;53.128;8.182;2023-02-21T04:14:47;101387.25;;;8.55;100.00
12969;BME280;6549;53.128;8.182;2023-02-21T04:17:47;101385.66;;;8.54;100.00
12969;BME280;6549;53.128;8.182;2023-02-21T04:20:47;101390.00;;;8.55;100.00
12969;BME280;6549;53.128;8.182;2023-02-21T04:23:48;101388.41;;;8.54;100.00
12969;BME280;6549;53.128;8.182;2023-02-21T04:26:49;101397.00;;;8.53;100.00
12969;BME280;6549;53.128;8.182;2023-02-21T04:29:49;101391.53;;;8.53;100.00
12969;BME280;6549;53.128;8.182;2023-02-21T04:32:50;101392.31;;;8.53;100.00
12969;BME280;6549;53.128;8.182;2023-02-21T04:35:50;101386.91;;;8.57;100.00
12969;BME280;6549;53.128;8.182;2023-02-21T04:38:50;101384.97;;;8.57;100.00
12969;BME280;6549;53.128;8.182;2023-02-21T04:41:51;101383.72;;;8.55;100.00
12969;BME280;6549;53.128;8.182;2023-02-21T04:44:51;101386.84;;;8.53;100.00
12969;BME280;6549;53.128;8.182;2023-02-21T04:47:51;101389.66;;;8.57;100.00
12969;BME280;6549;53.128;8.182;2023-02-21T04:50:52;101389.28;;;8.58;100.00
12969;BME280;6549;53.128;8.182;2023-02-21T04:53:53;101385.78;;;8.58;100.00
12969;BME280;6549;53.128;8.182;2023-02-21T04:56:54;101384.25;;;8.61;100.00
12969;BME280;6549;53.128;8.182;2023-02-21T04:59:56;101377.44;;;8.54;100.00
12969;BME280;6549;53.128;8.182;2023-02-21T05:02:57;101377.91;;;8.56;100.00
12969;BME280;6549;53.128;8.182;2023-02-21T05:05:58;101377.56;;;8.58;100.00
12969;BME280;6549;53.128;8.182;2023-02-21T05:08:58;101381.44;;;8.57;100.00
12969;BME280;6549;53.128;8.182;2023-02-21T05:11:59;101372.06;;;8.58;100.00
12969;BME280;6549;53.128;8.182;2023-02-21T05:14:59;101369.69;;;8.56;100.00
12969;BME280;6549;53.128;8.182;2023-02-21T05:17:59;101370.81;;;8.55;100.00
12969;BME280;6549;53.128;8.182;2023-02-21T05:21:00;101379.50;;;8.57;100.00
12969;BME280;6549;53.128;8.182;2023-02-21T05:24:00;101370.47;;;8.57;100.00
12969;BME280;6549;53.128;8.182;2023-02-21T05:27:01;101361.00;;;8.54;100.00
12969;BME280;6549;53.128;8.182;2023-02-21T05:30:01;101376.84;;;8.61;100.00
12969;BME280;6549;53.128;8.182;2023-02-21T05:33:02;101374.03;;;8.57;100.00
12969;BME280;6549;53.128;8.182;2023-02-21T05:36:02;101371.19;;;8.54;100.00
12969;BME280;6549;53.128;8.182;2023-02-21T05:39:03;101383.72;;;8.55;100.00
12969;BME280;6549;53.128;8.182;2023-02-21T05:42:04;101381.44;;;8.57;100.00
12969;BME280;6549;53.128;8.182;2023-02-21T05:45:05;101376.38;;;8.59;100.00
12969;BME280;6549;53.128;8.182;2023-02-21T05:48:08;101375.97;;;8.57;100.00
12969;BME280;6549;53.128;8.182;2023-02-21T05:51:09;101382.22;;;8.57;100.00
12969;BME280;6549;53.128;8.182;2023-02-21T05:54:17;101387.00;;;8.61;100.00
12969;BME280;6549;53.128;8.182;2023-02-21T05:57:19;101376.75;;;8.57;100.00
12969;BME280;6549;53.128;8.182;2023-02-21T06:00:25;101383.03;;;8.58;100.00
12969;BME280;6549;53.128;8.182;2023-02-21T06:03:27;101388.59;;;8.62;100.00
12969;BME280;6549;53.128;8.182;2023-02-21T06:06:27;101383.97;;;8.66;100.00
12969;BME280;6549;53.128;8.182;2023-02-21T06:09:27;101382.38;;;8.65;100.00
12969;BME280;6549;53.128;8.182;2023-02-21T06:12:30;101379.31;;;8.66;100.00
12969;BME280;6549;53.128;8.182;2023-02-21T06:15:30;101380.09;;;8.67;100.00
12969;BME280;6549;53.128;8.182;2023-02-21T06:18:30;101372.22;;;8.65;100.00
12969;BME280;6549;53.128;8.182;2023-02-21T06:21:31;101361.78;;;8.71;100.00
12969;BME280;6549;53.128;8.182;2023-02-21T06:24:32;101373.91;;;8.70;100.00
12969;BME280;6549;53.128;8.182;2023-02-21T06:27:32;101363.81;;;8.74;100.00
12969;BME280;6549;53.128;8.182;2023-02-21T06:30:32;101380.97;;;8.71;100.00
12969;BME280;6549;53.128;8.182;2023-02-21T06:33:33;101367.63;;;8.69;100.00
12969;BME280;6549;53.128;8.182;2023-02-21T06:36:33;101378.22;;;8.71;100.00
12969;BME280;6549;53.128;8.182;2023-02-21T06:39:34;101376.63;;;8.70;100.00
12969;BME280;6549;53.128;8.182;2023-02-21T06:42:35;101373.53;;;8.71;100.00
12969;BME280;6549;53.128;8.182;2023-02-21T06:45:36;101384.41;;;8.68;100.00
12969;BME280;6549;53.128;8.182;2023-02-21T06:48:36;101385.13;;;8.65;100.00
12969;BME280;6549;53.128;8.182;2023-02-21T06:51:39;101383.19;;;8.65;100.00
12969;BME280;6549;53.128;8.182;2023-02-21T06:54:40;101386.28;;;8.64;100.00
12969;BME280;6549;53.128;8.182;2023-02-21T06:57:40;101392.13;;;8.62;100.00
12969;BME280;6549;53.128;8.182;2023-02-21T07:00:40;101389.00;;;8.64;100.00
12969;BME280;6549;53.128;8.182;2023-02-21T07:03:41;101398.91;;;8.68;100.00
12969;BME280;6549;53.128;8.182;2023-02-21T07:06:43;101408.38;;;8.71;100.00
12969;BME280;6549;53.128;8.182;2023-02-21T07:09:43;101411.03;;;8.67;100.00
12969;BME280;6549;53.128;8.182;2023-02-21T07:12:43;101410.13;;;8.63;100.00
12969;BME280;6549;53.128;8.182;2023-02-21T07:15:44;101415.00;;;8.70;100.00
12969;BME280;6549;53.128;8.182;2023-02-21T07:18:45;101408.28;;;8.67;100.00
12969;BME280;6549;53.128;8.182;2023-02-21T07:21:45;101412.69;;;8.72;100.00
12969;BME280;6549;53.128;8.182;2023-02-21T07:24:46;101417.00;;;8.73;100.00
12969;BME280;6549;53.128;8.182;2023-02-21T07:27:47;101408.38;;;8.71;100.00
12969;BME280;6549;53.128;8.182;2023-02-21T07:30:47;101413.06;;;8.70;100.00
12969;BME280;6549;53.128;8.182;2023-02-21T07:33:48;101416.31;;;8.76;100.00
12969;BME280;6549;53.128;8.182;2023-02-21T07:36:49;101424.81;;;8.71;100.00
12969;BME280;6549;53.128;8.182;2023-02-21T07:39:49;101415.16;;;8.77;100.00
12969;BME280;6549;53.128;8.182;2023-02-21T07:42:50;101428.94;;;8.80;100.00
12969;BME280;6549;53.128;8.182;2023-02-21T07:45:51;101430.38;;;8.74;100.00
12969;BME280;6549;53.128;8.182;2023-02-21T07:48:51;101426.56;;;8.79;100.00
12969;BME280;6549;53.128;8.182;2023-02-21T07:51:51;101424.97;;;8.78;100.00
12969;BME280;6549;53.128;8.182;2023-02-21T07:54:52;101426.63;;;8.82;100.00
12969;BME280;6549;53.128;8.182;2023-02-21T07:57:52;101429.72;;;8.81;100.00
12969;BME280;6549;53.128;8.182;2023-02-21T08:00:52;101433.63;;;8.80;100.00
12969;BME280;6549;53.128;8.182;2023-02-21T08:03:54;101444.13;;;8.78;100.00
12969;BME280;6549;53.128;8.182;2023-02-21T08:06:59;101443.34;;;8.77;100.00
12969;BME280;6549;53.128;8.182;2023-02-21T08:10:00;101449.34;;;8.83;100.00
12969;BME280;6549;53.128;8.182;2023-02-21T08:13:00;101463.41;;;8.81;100.00
12969;BME280;6549;53.128;8.182;2023-02-21T08:16:00;101461.47;;;8.82;100.00
12969;BME280;6549;53.128;8.182;2023-02-21T08:19:01;101463.41;;;8.81;100.00
12969;BME280;6549;53.128;8.182;2023-02-21T08:22:01;101475.16;;;8.82;100.00
12969;BME280;6549;53.128;8.182;2023-02-21T08:25:02;101465.78;;;8.83;100.00
12969;BME280;6549;53.128;8.182;2023-02-21T08:28:02;101475.16;;;8.82;100.00
12969;BME280;6549;53.128;8.182;2023-02-21T08:31:02;101465.53;;;8.88;100.00
12969;BME280;6549;53.128;8.182;2023-02-21T08:34:03;101477.97;;;8.85;100.00
12969;BME280;6549;53.128;8.182;2023-02-21T08:37:05;101474.09;;;8.86;100.00
12969;BME280;6549;53.128;8.182;2023-02-21T08:40:14;101471.81;;;8.88;100.00
12969;BME280;6549;53.128;8.182;2023-02-21T08:43:15;101478.09;;;8.89;100.00
12969;BME280;6549;53.128;8.182;2023-02-21T08:46:15;101472.31;;;8.94;100.00
12969;BME280;6549;53.128;8.182;2023-02-21T08:49:16;101471.88;;;8.92;100.00
12969;BME280;6549;53.128;8.182;2023-02-21T08:52:17;101471.16;;;8.95;100.00
12969;BME280;6549;53.128;8.182;2023-02-21T08:55:19;101480.38;;;9.02;100.00
12969;BME280;6549;53.128;8.182;2023-02-21T08:58:19;101470.16;;;9.03;100.00
12969;BME280;6549;53.128;8.182;2023-02-21T09:01:21;101474.56;;;9.08;100.00
12969;BME280;6549;53.128;8.182;2023-02-21T09:04:21;101475.22;;;9.01;100.00
12969;BME280;6549;53.128;8.182;2023-02-21T09:07:22;101471.34;;;9.02;100.00
12969;BME280;6549;53.128;8.182;2023-02-21T09:10:22;101475.66;;;9.03;100.00
12969;BME280;6549;53.128;8.182;2023-02-21T09:13:22;101475.66;;;9.03;100.00
12969;BME280;6549;53.128;8.182;2023-02-21T09:16:23;101480.44;;;9.06;100.00
12969;BME280;6549;53.128;8.182;2023-02-21T09:19:26;101484.78;;;9.07;100.00
12969;BME280;6549;53.128;8.182;2023-02-21T09:22:26;101483.59;;;9.08;100.00
12969;BME280;6549;53.128;8.182;2023-02-21T09:25:27;101476.63;;;9.11;100.00
12969;BME280;6549;53.128;8.182;2023-02-21T09:28:27;101483.69;;;9.12;100.00
12969;BME280;6549;53.128;8.182;2023-02-21T09:31:28;101478.56;;;9.10;100.00
12969;BME280;6549;53.128;8.182;2023-02-21T09:34:28;101482.19;;;9.14;100.00
12969;BME280;6549;53.128;8.182;2023-02-21T09:37:29;101486.94;;;9.17;100.00
12969;BME280;6549;53.128;8.182;2023-02-21T09:40:44;101485.06;;;9.21;100.00
12969;BME280;6549;53.128;8.182;2023-02-21T09:43:52;101484.38;;;9.24;100.00
12969;BME280;6549;53.128;8.182;2023-02-21T09:46:58;101489.06;;;9.24;100.00
12969;BME280;6549;53.128;8.182;2023-02-21T09:50:03;101487.97;;;9.28;100.00
12969;BME280;6549;53.128;8.182;2023-02-21T09:53:05;101487.25;;;9.31;100.00
12969;BME280;6549;53.128;8.182;2023-02-21T09:56:13;101492.47;;;9.36;100.00
12969;BME280;6549;53.128;8.182;2023-02-21T09:59:17;101490.06;;;9.35;100.00
12969;BME280;6549;53.128;8.182;2023-02-21T10:02:29;101496.81;;;9.37;100.00
12969;BME280;6549;53.128;8.182;2023-02-21T10:05:43;101494.94;;;9.41;100.00
12969;BME280;6549;53.128;8.182;2023-02-21T10:12:09;101488.38;;;9.46;100.00
12969;BME280;6549;53.128;8.182;2023-02-21T10:21:41;101497.53;;;9.54;100.00
12969;BME280;6549;53.128;8.182;2023-02-21T10:24:43;101494.00;;;9.53;100.00
12969;BME280;6549;53.128;8.182;2023-02-21T10:27:43;101490.50;;;9.56;100.00
12969;BME280;6549;53.128;8.182;2023-02-21T10:30:44;101498.91;;;9.63;100.00
12969;BME280;6549;53.128;8.182;2023-02-21T10:33:46;101496.53;;;9.62;100.00
12969;BME280;6549;53.128;8.182;2023-02-21T10:36:47;101501.38;;;9.68;100.00
12969;BME280;6549;53.128;8.182;2023-02-21T10:39:52;101505.28;;;9.67;100.00
12969;BME280;6549;53.128;8.182;2023-02-21T10:46:23;101515.22;;;9.75;100.00
12969;BME280;6549;53.128;8.182;2023-02-21T10:49:28;101512.06;;;9.73;100.00
12969;BME280;6549;53.128;8.182;2023-02-21T10:52:36;101500.00;;;9.78;100.00
12969;BME280;6549;53.128;8.182;2023-02-21T10:55:37;101505.50;;;9.78;100.00
12969;BME280;6549;53.128;8.182;2023-02-21T10:58:37;101507.84;;;9.79;100.00
12969;BME280;6549;53.128;8.182;2023-02-21T11:01:42;101507.94;;;9.83;100.00
12969;BME280;6549;53.128;8.182;2023-02-21T11:04:44;101509.97;;;9.86;100.00
12969;BME280;6549;53.128;8.182;2023-02-21T11:08:09;101518.25;;;9.89;100.00
12969;BME280;6549;53.128;8.182;2023-02-21T11:11:09;101508.09;;;9.90;100.00
12969;BME280;6549;53.128;8.182;2023-02-21T11:17:20;101509.00;;;9.98;100.00
12969;BME280;6549;53.128;8.182;2023-02-21T11:20:21;101508.38;;;10.04;100.00
12969;BME280;6549;53.128;8.182;2023-02-21T11:23:26;101503.06;;;10.15;100.00
12969;BME280;6549;53.128;8.182;2023-02-21T11:26:37;101507.13;;;10.21;100.00
12969;BME280;6549;53.128;8.182;2023-02-21T11:29:41;101515.31;;;10.17;100.00
12969;BME280;6549;53.128;8.182;2023-02-21T11:32:49;101510.88;;;10.13;100.00
12969;BME280;6549;53.128;8.182;2023-02-21T11:35:53;101511.22;;;10.11;100.00
12969;BME280;6549;53.128;8.182;2023-02-21T11:42:03;101509.63;;;10.10;100.00
12969;BME280;6549;53.128;8.182;2023-02-21T11:45:13;101504.53;;;10.09;100.00
12969;BME280;6549;53.128;8.182;2023-02-21T11:48:18;101505.69;;;10.08;100.00
12969;BME280;6549;53.128;8.182;2023-02-21T11:51:48;101503.44;;;10.13;100.00
12969;BME280;6549;53.128;8.182;2023-02-21T11:54:50;101497.00;;;10.25;100.00
12969;BME280;6549;53.128;8.182;2023-02-21T11:58:05;101508.19;;;10.35;100.00
12969;BME280;6549;53.128;8.182;2023-02-21T12:01:14;101498.16;;;10.47;100.00
12969;BME280;6549;53.128;8.182;2023-02-21T12:07:51;101503.06;;;10.57;100.00
12969;BME280;6549;53.128;8.182;2023-02-21T12:11:09;101499.56;;;10.60;100.00
12969;BME280;6549;53.128;8.182;2023-02-21T12:27:28;101487.75;;;10.82;100.00
12969;BME280;6549;53.128;8.182;2023-02-21T12:50:42;101478.66;;;10.78;100.00
12969;BME280;6549;53.128;8.182;2023-02-21T12:54:09;101471.47;;;10.70;100.00
12969;BME280;6549;53.128;8.182;2023-02-21T12:57:11;101469.09;;;10.68;100.00
12969;BME280;6549;53.128;8.182;2023-02-21T13:00:17;101464.28;;;10.62;100.00
12969;BME280;6549;53.128;8.182;2023-02-21T13:06:37;101465.31;;;10.54;100.00
12969;BME280;6549;53.128;8.182;2023-02-21T13:09:46;101468.91;;;10.58;100.00
12969;BME280;6549;53.128;8.182;2023-02-21T13:13:03;101468.50;;;10.56;100.00
12969;BME280;6549;53.128;8.182;2023-02-21T13:16:07;101457.53;;;10.59;100.00
12969;BME280;6549;53.128;8.182;2023-02-21T13:19:12;101474.47;;;10.61;100.00
12969;BME280;6549;53.128;8.182;2023-02-21T13:39:34;101453.69;;;10.64;100.00
12969;BME280;6549;53.128;8.182;2023-02-21T13:42:38;101449.78;;;10.65;100.00
12969;BME280;6549;53.128;8.182;2023-02-21T13:45:38;101451.69;;;10.61;100.00
12969;BME280;6549;53.128;8.182;2023-02-21T13:48:39;101443.00;;;10.59;100.00
12969;BME280;6549;53.128;8.182;2023-02-21T13:51:50;101444.97;;;10.58;100.00
12969;BME280;6549;53.128;8.182;2023-02-21T14:07:59;101429.44;;;10.69;100.00
12969;BME280;6549;53.128;8.182;2023-02-21T14:11:13;101429.41;;;10.66;100.00
12969;BME280;6549;53.128;8.182;2023-02-21T14:14:22;101427.00;;;10.64;100.00
12969;BME280;6549;53.128;8.182;2023-02-21T14:17:27;101426.22;;;10.64;100.00
12969;BME280;6549;53.128;8.182;2023-02-21T14:20:28;101435.59;;;10.63;100.00
12969;BME280;6549;53.128;8.182;2023-02-21T14:24:02;101429.72;;;10.61;100.00
12969;BME280;6549;53.128;8.182;2023-02-21T14:30:32;101428.41;;;10.55;100.00
12969;BME280;6549;53.128;8.182;2023-02-21T14:33:33;101436.66;;;10.55;100.00
12969;BME280;6549;53.128;8.182;2023-02-21T14:36:35;101430.75;;;10.53;100.00
12969;BME280;6549;53.128;8.182;2023-02-21T14:39:39;101429.16;;;10.52;100.00
12969;BME280;6549;53.128;8.182;2023-02-21T14:53:05;101437.34;;;10.48;100.00
12969;BME280;6549;53.128;8.182;2023-02-21T15:03:04;101422.81;;;10.48;100.00
12969;BME280;6549;53.128;8.182;2023-02-21T15:06:11;101420.13;;;10.51;100.00
12969;BME280;6549;53.128;8.182;2023-02-21T15:09:19;101419.69;;;10.49;100.00
12969;BME280;6549;53.128;8.182;2023-02-21T15:12:21;101418.91;;;10.49;100.00
12969;BME280;6549;53.128;8.182;2023-02-21T15:15:55;101426.72;;;10.47;100.00
12969;BME280;6549;53.128;8.182;2023-02-21T15:18:59;101429.03;;;10.45;100.00
12969;BME280;6549;53.128;8.182;2023-02-21T15:25:19;101427.38;;;10.40;100.00
12969;BME280;6549;53.128;8.182;2023-02-21T15:31:22;101428.56;;;10.39;100.00
12969;BME280;6549;53.128;8.182;2023-02-21T15:34:34;101430.53;;;10.39;100.00
12969;BME280;6549;53.128;8.182;2023-02-21T15:37:38;101432.03;;;10.36;100.00
12969;BME280;6549;53.128;8.182;2023-02-21T15:40:39;101424.91;;;10.31;100.00
12969;BME280;6549;53.128;8.182;2023-02-21T15:46:49;101427.97;;;10.26;100.00
12969;BME280;6549;53.128;8.182;2023-02-21T15:53:22;101428.63;;;10.20;100.00
12969;BME280;6549;53.128;8.182;2023-02-21T15:56:23;101434.88;;;10.17;100.00
12969;BME280;6549;53.128;8.182;2023-02-21T15:59:26;101432.38;;;10.12;100.00
12969;BME280;6549;53.128;8.182;2023-02-21T16:02:26;101433.91;;;10.09;100.00
12969;BME280;6549;53.128;8.182;2023-02-21T16:05:29;101437.03;;;10.08;100.00
12969;BME280;6549;53.128;8.182;2023-02-21T16:08:29;101425.19;;;10.04;100.00
12969;BME280;6549;53.128;8.182;2023-02-21T16:14:47;101440.44;;;10.01;100.00
12969;BME280;6549;53.128;8.182;2023-02-21T16:17:59;101427.50;;;10.02;100.00
12969;BME280;6549;53.128;8.182;2023-02-21T16:21:05;101429.38;;;9.98;100.00
12969;BME280;6549;53.128;8.182;2023-02-21T16:24:39;101432.88;;;9.95;100.00
12969;BME280;6549;53.128;8.182;2023-02-21T16:27:43;101436.75;;;9.93;100.00
12969;BME280;6549;53.128;8.182;2023-02-21T16:30:43;101443.06;;;9.94;100.00
12969;BME280;6549;53.128;8.182;2023-02-21T16:33:44;101437.63;;;9.98;100.00
12969;BME280;6549;53.128;8.182;2023-02-21T16:36:44;101437.13;;;9.92;100.00
12969;BME280;6549;53.128;8.182;2023-02-21T16:39:44;101437.13;;;9.92;100.00
12969;BME280;6549;53.128;8.182;2023-02-21T16:42:45;101440.59;;;9.89;100.00
12969;BME280;6549;53.128;8.182;2023-02-21T16:45:47;101445.66;;;9.87;100.00
12969;BME280;6549;53.128;8.182;2023-02-21T16:48:47;101442.03;;;9.83;100.00
12969;BME280;6549;53.128;8.182;2023-02-21T16:51:48;101443.56;;;9.80;100.00
12969;BME280;6549;53.128;8.182;2023-02-21T16:54:48;101451.75;;;9.77;100.00
12969;BME280;6549;53.128;8.182;2023-02-21T16:57:50;101451.75;;;9.77;100.00
12969;BME280;6549;53.128;8.182;2023-02-21T17:00:52;101458.31;;;9.72;100.00
12969;BME280;6549;53.128;8.182;2023-02-21T17:03:54;101461.88;;;9.73;100.00
12969;BME280;6549;53.128;8.182;2023-02-21T17:07:15;101456.00;;;9.74;100.00
12969;BME280;6549;53.128;8.182;2023-02-21T17:10:15;101459.13;;;9.73;100.00
12969;BME280;6549;53.128;8.182;2023-02-21T17:13:15;101459.81;;;9.70;100.00
12969;BME280;6549;53.128;8.182;2023-02-21T17:16:16;101462.16;;;9.68;100.00
12969;BME280;6549;53.128;8.182;2023-02-21T17:19:19;101465.97;;;9.63;100.00
12969;BME280;6549;53.128;8.182;2023-02-21T17:22:23;101467.59;;;9.64;100.00
12969;BME280;6549;53.128;8.182;2023-02-21T17:25:24;101462.00;;;9.61;100.00
12969;BME280;6549;53.128;8.182;2023-02-21T17:28:24;101465.13;;;9.59;100.00
12969;BME280;6549;53.128;8.182;2023-02-21T17:31:25;101468.22;;;9.58;100.00
12969;BME280;6549;53.128;8.182;2023-02-21T17:34:25;101468.94;;;9.55;100.00
12969;BME280;6549;53.128;8.182;2023-02-21T17:37:25;101475.13;;;9.52;100.00
12969;BME280;6549;53.128;8.182;2023-02-21T17:40:26;101478.59;;;9.48;100.00
12969;BME280;6549;53.128;8.182;2023-02-21T17:43:27;101480.94;;;9.46;100.00
12969;BME280;6549;53.128;8.182;2023-02-21T17:46:27;101487.56;;;9.45;100.00
12969;BME280;6549;53.128;8.182;2023-02-21T17:49:27;101484.38;;;9.43;100.00
12969;BME280;6549;53.128;8.182;2023-02-21T17:52:28;101488.31;;;9.42;100.00
12969;BME280;6549;53.128;8.182;2023-02-21T17:55:29;101492.19;;;9.41;100.00
12969;BME280;6549;53.128;8.182;2023-02-21T17:58:30;101485.91;;;9.41;100.00
12969;BME280;6549;53.128;8.182;2023-02-21T18:01:30;101489.00;;;9.39;100.00
12969;BME280;6549;53.128;8.182;2023-02-21T18:04:30;101480.75;;;9.39;100.00
12969;BME280;6549;53.128;8.182;2023-02-21T18:07:31;101486.69;;;9.41;100.00
12969;BME280;6549;53.128;8.182;2023-02-21T18:10:31;101481.56;;;9.40;100.00
12969;BME280;6549;53.128;8.182;2023-02-21T18:13:32;101487.41;;;9.38;100.00
12969;BME280;6549;53.128;8.182;2023-02-21T18:16:32;101488.19;;;9.39;100.00
12969;BME280;6549;53.128;8.182;2023-02-21T18:19:32;101492.88;;;9.38;100.00
12969;BME280;6549;53.128;8.182;2023-02-21T18:22:33;101490.53;;;9.37;100.00
12969;BME280;6549;53.128;8.182;2023-02-21T18:25:34;101499.09;;;9.35;100.00
12969;BME280;6549;53.128;8.182;2023-02-21T18:28:34;101495.13;;;9.33;100.00
12969;BME280;6549;53.128;8.182;2023-02-21T18:31:34;101495.50;;;9.31;100.00
12969;BME280;6549;53.128;8.182;2023-02-21T18:34:35;101497.44;;;9.31;100.00
12969;BME280;6549;53.128;8.182;2023-02-21T18:37:35;101486.81;;;9.29;100.00
12969;BME280;6549;53.128;8.182;2023-02-21T18:40:35;101493.03;;;9.26;100.00
12969;BME280;6549;53.128;8.182;2023-02-21T18:43:43;101495.34;;;9.24;100.00
12969;BME280;6549;53.128;8.182;2023-02-21T18:46:51;101493.75;;;9.23;100.00
12969;BME280;6549;53.128;8.182;2023-02-21T18:49:53;101496.50;;;9.23;100.00
12969;BME280;6549;53.128;8.182;2023-02-21T18:52:54;101491.28;;;9.18;100.00
12969;BME280;6549;53.128;8.182;2023-02-21T18:55:55;101500.22;;;9.15;100.00